sensor_id;sensor_type;location;lat;lon;timestamp;P1;durP1;ratioP1;P2;durP2;ratioP2
66603;SDS011;53460;39.612;8.822;2022-10-18T00:00:02;3.67;;;2.35;;
66603;SDS011;53460;39.612;8.822;2022-10-18T00:02:29;3.15;;;2.10;;
66603;SDS011;53460;39.612;8.822;2022-10-18T00:04:55;2.45;;;2.25;;
66603;SDS011;53460;39.612;8.822;2022-10-18T00:07:20;3.28;;;2.28;;
66603;SDS011;53460;39.612;8.822;2022-10-18T00:09:46;2.92;;;2.15;;
66603;SDS011;53460;39.612;8.822;2022-10-18T00:12:11;2.67;;;2.47;;
66603;SDS011;53460;39.612;8.822;2022-10-18T00:14:37;4.38;;;2.53;;
66603;SDS011;53460;39.612;8.822;2022-10-18T00:17:02;4.18;;;2.42;;
66603;SDS011;53460;39.612;8.822;2022-10-18T00:19:28;2.42;;;2.22;;
66603;SDS011;53460;39.612;8.822;2022-10-18T00:21:53;4.47;;;2.20;;
66603;SDS011;53460;39.612;8.822;2022-10-18T00:24:19;3.58;;;2.47;;
66603;SDS011;53460;39.612;8.822;2022-10-18T00:26:44;3.55;;;2.30;;
66603;SDS011;53460;39.612;8.822;2022-10-18T00:29:12;3.45;;;2.28;;
66603;SDS011;53460;39.612;8.822;2022-10-18T00:31:37;2.85;;;2.40;;
66603;SDS011;53460;39.612;8.822;2022-10-18T00:34:04;3.45;;;2.10;;
66603;SDS011;53460;39.612;8.822;2022-10-18T00:36:30;3.42;;;2.38;;
66603;SDS011;53460;39.612;8.822;2022-10-18T00:38:56;4.72;;;2.60;;
66603;SDS011;53460;39.612;8.822;2022-10-18T00:41:23;6.00;;;2.70;;
66603;SDS011;53460;39.612;8.822;2022-10-18T00:46:35;2.80;;;2.17;;
66603;SDS011;53460;39.612;8.822;2022-10-18T00:49:03;2.42;;;2.13;;
66603;SDS011;53460;39.612;8.822;2022-10-18T00:51:36;4.57;;;2.63;;
66603;SDS011;53460;39.612;8.822;2022-10-18T00:54:02;4.00;;;2.63;;
66603;SDS011;53460;39.612;8.822;2022-10-18T00:56:28;3.78;;;2.50;;
66603;SDS011;53460;39.612;8.822;2022-10-18T00:58:54;4.00;;;3.00;;
66603;SDS011;53460;39.612;8.822;2022-10-18T01:01:19;3.47;;;2.65;;
66603;SDS011;53460;39.612;8.822;2022-10-18T01:03:45;3.88;;;2.58;;
66603;SDS011;53460;39.612;8.822;2022-10-18T01:06:11;4.68;;;2.53;;
66603;SDS011;53460;39.612;8.822;2022-10-18T01:11:24;2.67;;;2.17;;
66603;SDS011;53460;39.612;8.822;2022-10-18T01:16:27;2.50;;;2.20;;
66603;SDS011;53460;39.612;8.822;2022-10-18T01:24:04;3.30;;;2.50;;
66603;SDS011;53460;39.612;8.822;2022-10-18T01:29:21;5.43;;;2.50;;
66603;SDS011;53460;39.612;8.822;2022-10-18T01:31:54;2.65;;;2.30;;
66603;SDS011;53460;39.612;8.822;2022-10-18T01:34:22;2.90;;;2.25;;
66603;SDS011;53460;39.612;8.822;2022-10-18T01:36:50;2.60;;;2.40;;
66603;SDS011;53460;39.612;8.822;2022-10-18T01:39:19;3.67;;;2.17;;
66603;SDS011;53460;39.612;8.822;2022-10-18T01:41:45;4.55;;;2.47;;
66603;SDS011;53460;39.612;8.822;2022-10-18T01:44:15;2.30;;;2.13;;
66603;SDS011;53460;39.612;8.822;2022-10-18T01:46:42;3.38;;;1.95;;
66603;SDS011;53460;39.612;8.822;2022-10-18T01:49:08;3.38;;;2.65;;
66603;SDS011;53460;39.612;8.822;2022-10-18T01:51:33;3.40;;;2.30;;
66603;SDS011;53460;39.612;8.822;2022-10-18T01:53:59;4.35;;;2.03;;
66603;SDS011;53460;39.612;8.822;2022-10-18T02:03:55;4.43;;;2.60;;
66603;SDS011;53460;39.612;8.822;2022-10-18T02:06:22;2.92;;;2.10;;
66603;SDS011;53460;39.612;8.822;2022-10-18T02:08:53;2.60;;;2.00;;
66603;SDS011;53460;39.612;8.822;2022-10-18T02:11:21;2.78;;;2.30;;
66603;SDS011;53460;39.612;8.822;2022-10-18T02:13:57;1.98;;;1.77;;
66603;SDS011;53460;39.612;8.822;2022-10-18T02:16:29;3.33;;;1.92;;
66603;SDS011;53460;39.612;8.822;2022-10-18T02:19:00;3.28;;;2.25;;
66603;SDS011;53460;39.612;8.822;2022-10-18T02:21:26;3.90;;;2.08;;
66603;SDS011;53460;39.612;8.822;2022-10-18T02:23:52;2.45;;;2.25;;
66603;SDS011;53460;39.612;8.822;2022-10-18T02:26:18;4.28;;;2.20;;
66603;SDS011;53460;39.612;8.822;2022-10-18T02:28:44;3.20;;;2.20;;
66603;SDS011;53460;39.612;8.822;2022-10-18T02:31:14;2.35;;;1.88;;
66603;SDS011;53460;39.612;8.822;2022-10-18T02:33:54;3.65;;;2.20;;
66603;SDS011;53460;39.612;8.822;2022-10-18T02:36:28;2.10;;;1.90;;
66603;SDS011;53460;39.612;8.822;2022-10-18T02:38:57;2.10;;;1.90;;
66603;SDS011;53460;39.612;8.822;2022-10-18T02:41:25;2.50;;;2.30;;
66603;SDS011;53460;39.612;8.822;2022-10-18T02:43:51;2.90;;;2.15;;
66603;SDS011;53460;39.612;8.822;2022-10-18T02:46:16;2.30;;;1.95;;
66603;SDS011;53460;39.612;8.822;2022-10-18T02:48:42;2.97;;;2.20;;
66603;SDS011;53460;39.612;8.822;2022-10-18T02:51:07;2.60;;;2.10;;
66603;SDS011;53460;39.612;8.822;2022-10-18T02:53:33;2.40;;;2.20;;
66603;SDS011;53460;39.612;8.822;2022-10-18T02:55:58;2.40;;;2.20;;
66603;SDS011;53460;39.612;8.822;2022-10-18T02:58:24;2.03;;;1.80;;
66603;SDS011;53460;39.612;8.822;2022-10-18T03:00:49;2.42;;;1.77;;
66603;SDS011;53460;39.612;8.822;2022-10-18T03:03:15;3.38;;;2.30;;
66603;SDS011;53460;39.612;8.822;2022-10-18T03:05:40;2.33;;;1.95;;
66603;SDS011;53460;39.612;8.822;2022-10-18T03:08:06;2.20;;;2.00;;
66603;SDS011;53460;39.612;8.822;2022-10-18T03:10:31;2.40;;;1.80;;
66603;SDS011;53460;39.612;8.822;2022-10-18T03:12:57;4.28;;;2.20;;
66603;SDS011;53460;39.612;8.822;2022-10-18T03:15:22;4.25;;;2.17;;
66603;SDS011;53460;39.612;8.822;2022-10-18T03:17:48;3.80;;;2.10;;
66603;SDS011;53460;39.612;8.822;2022-10-18T03:20:13;3.92;;;2.15;;
66603;SDS011;53460;39.612;8.822;2022-10-18T03:22:39;2.58;;;2.10;;
66603;SDS011;53460;39.612;8.822;2022-10-18T03:25:04;4.47;;;2.10;;
66603;SDS011;53460;39.612;8.822;2022-10-18T03:27:30;2.80;;;2.33;;
66603;SDS011;53460;39.612;8.822;2022-10-18T03:29:55;4.05;;;2.40;;
66603;SDS011;53460;39.612;8.822;2022-10-18T03:32:21;6.28;;;2.40;;
66603;SDS011;53460;39.612;8.822;2022-10-18T03:34:46;3.42;;;2.17;;
66603;SDS011;53460;39.612;8.822;2022-10-18T03:37:11;3.35;;;2.38;;
66603;SDS011;53460;39.612;8.822;2022-10-18T03:39:37;3.35;;;2.30;;
66603;SDS011;53460;39.612;8.822;2022-10-18T03:42:02;2.88;;;2.58;;
66603;SDS011;53460;39.612;8.822;2022-10-18T03:44:28;4.53;;;2.17;;
66603;SDS011;53460;39.612;8.822;2022-10-18T03:46:53;5.38;;;2.42;;
66603;SDS011;53460;39.612;8.822;2022-10-18T03:49:19;3.78;;;2.38;;
66603;SDS011;53460;39.612;8.822;2022-10-18T03:51:44;4.50;;;2.30;;
66603;SDS011;53460;39.612;8.822;2022-10-18T03:54:10;2.38;;;2.05;;
66603;SDS011;53460;39.612;8.822;2022-10-18T03:56:35;2.40;;;2.00;;
66603;SDS011;53460;39.612;8.822;2022-10-18T03:59:01;2.33;;;2.10;;
66603;SDS011;53460;39.612;8.822;2022-10-18T04:01:28;4.38;;;2.08;;
66603;SDS011;53460;39.612;8.822;2022-10-18T04:03:54;4.32;;;2.55;;
66603;SDS011;53460;39.612;8.822;2022-10-18T04:06:19;3.47;;;2.20;;
66603;SDS011;53460;39.612;8.822;2022-10-18T04:08:45;3.22;;;2.30;;
66603;SDS011;53460;39.612;8.822;2022-10-18T04:11:10;2.45;;;1.98;;
66603;SDS011;53460;39.612;8.822;2022-10-18T04:13:36;3.95;;;2.30;;
66603;SDS011;53460;39.612;8.822;2022-10-18T04:16:02;3.80;;;2.22;;
66603;SDS011;53460;39.612;8.822;2022-10-18T04:18:27;2.40;;;2.05;;
66603;SDS011;53460;39.612;8.822;2022-10-18T04:20:53;3.60;;;2.20;;
66603;SDS011;53460;39.612;8.822;2022-10-18T04:23:18;4.45;;;2.35;;
66603;SDS011;53460;39.612;8.822;2022-10-18T04:25:44;3.95;;;2.20;;
66603;SDS011;53460;39.612;8.822;2022-10-18T04:28:09;4.05;;;2.30;;
66603;SDS011;53460;39.612;8.822;2022-10-18T04:30:35;3.40;;;2.20;;
66603;SDS011;53460;39.612;8.822;2022-10-18T04:33:00;2.65;;;2.30;;
66603;SDS011;53460;39.612;8.822;2022-10-18T04:35:26;4.30;;;2.50;;
66603;SDS011;53460;39.612;8.822;2022-10-18T04:37:52;2.92;;;2.15;;
66603;SDS011;53460;39.612;8.822;2022-10-18T04:40:18;3.08;;;2.22;;
66603;SDS011;53460;39.612;8.822;2022-10-18T04:42:46;3.58;;;2.10;;
66603;SDS011;53460;39.612;8.822;2022-10-18T04:45:12;2.25;;;2.05;;
66603;SDS011;53460;39.612;8.822;2022-10-18T04:47:37;2.67;;;2.10;;
66603;SDS011;53460;39.612;8.822;2022-10-18T04:50:03;3.83;;;2.13;;
66603;SDS011;53460;39.612;8.822;2022-10-18T04:52:29;2.78;;;2.20;;
66603;SDS011;53460;39.612;8.822;2022-10-18T04:54:54;3.67;;;2.40;;
66603;SDS011;53460;39.612;8.822;2022-10-18T04:57:20;3.22;;;2.35;;
66603;SDS011;53460;39.612;8.822;2022-10-18T04:59:45;3.58;;;2.08;;
66603;SDS011;53460;39.612;8.822;2022-10-18T05:02:11;2.63;;;2.20;;
66603;SDS011;53460;39.612;8.822;2022-10-18T05:04:36;4.15;;;2.33;;
66603;SDS011;53460;39.612;8.822;2022-10-18T05:07:02;4.13;;;2.38;;
66603;SDS011;53460;39.612;8.822;2022-10-18T05:09:27;4.07;;;2.50;;
66603;SDS011;53460;39.612;8.822;2022-10-18T05:11:52;2.55;;;2.17;;
66603;SDS011;53460;39.612;8.822;2022-10-18T05:14:18;4.88;;;2.25;;
66603;SDS011;53460;39.612;8.822;2022-10-18T05:16:43;3.78;;;2.22;;
66603;SDS011;53460;39.612;8.822;2022-10-18T05:19:09;4.43;;;2.22;;
66603;SDS011;53460;39.612;8.822;2022-10-18T05:21:34;4.82;;;2.30;;
66603;SDS011;53460;39.612;8.822;2022-10-18T05:24:00;14.20;;;2.30;;
66603;SDS011;53460;39.612;8.822;2022-10-18T05:26:25;3.70;;;2.03;;
66603;SDS011;53460;39.612;8.822;2022-10-18T05:28:51;3.65;;;2.13;;
66603;SDS011;53460;39.612;8.822;2022-10-18T05:31:16;2.65;;;2.00;;
66603;SDS011;53460;39.612;8.822;2022-10-18T05:33:42;5.00;;;2.40;;
66603;SDS011;53460;39.612;8.822;2022-10-18T05:36:07;2.90;;;2.30;;
66603;SDS011;53460;39.612;8.822;2022-10-18T05:38:33;3.30;;;2.05;;
66603;SDS011;53460;39.612;8.822;2022-10-18T05:41:02;5.32;;;2.13;;
66603;SDS011;53460;39.612;8.822;2022-10-18T05:43:28;4.50;;;3.45;;
66603;SDS011;53460;39.612;8.822;2022-10-18T05:45:53;3.42;;;2.33;;
66603;SDS011;53460;39.612;8.822;2022-10-18T05:48:19;6.30;;;2.28;;
66603;SDS011;53460;39.612;8.822;2022-10-18T05:50:44;4.13;;;2.70;;
66603;SDS011;53460;39.612;8.822;2022-10-18T05:53:10;3.72;;;2.38;;
66603;SDS011;53460;39.612;8.822;2022-10-18T05:55:35;5.82;;;2.28;;
66603;SDS011;53460;39.612;8.822;2022-10-18T05:58:01;7.82;;;2.75;;
66603;SDS011;53460;39.612;8.822;2022-10-18T06:00:27;4.35;;;2.30;;
66603;SDS011;53460;39.612;8.822;2022-10-18T06:02:53;3.17;;;2.13;;
66603;SDS011;53460;39.612;8.822;2022-10-18T06:05:18;5.35;;;2.30;;
66603;SDS011;53460;39.612;8.822;2022-10-18T06:07:44;5.10;;;2.47;;
66603;SDS011;53460;39.612;8.822;2022-10-18T06:10:09;3.38;;;2.35;;
66603;SDS011;53460;39.612;8.822;2022-10-18T06:12:35;3.90;;;2.50;;
66603;SDS011;53460;39.612;8.822;2022-10-18T06:15:00;3.38;;;2.30;;
66603;SDS011;53460;39.612;8.822;2022-10-18T06:17:25;4.22;;;2.47;;
66603;SDS011;53460;39.612;8.822;2022-10-18T06:19:51;4.10;;;2.10;;
66603;SDS011;53460;39.612;8.822;2022-10-18T06:22:16;4.43;;;2.63;;
66603;SDS011;53460;39.612;8.822;2022-10-18T06:24:42;2.90;;;2.25;;
66603;SDS011;53460;39.612;8.822;2022-10-18T06:27:07;4.20;;;2.35;;
66603;SDS011;53460;39.612;8.822;2022-10-18T06:29:34;2.80;;;2.50;;
66603;SDS011;53460;39.612;8.822;2022-10-18T06:32:00;3.30;;;2.38;;
66603;SDS011;53460;39.612;8.822;2022-10-18T06:34:25;4.00;;;2.13;;
66603;SDS011;53460;39.612;8.822;2022-10-18T06:36:50;4.60;;;2.40;;
66603;SDS011;53460;39.612;8.822;2022-10-18T06:39:16;4.55;;;2.55;;
66603;SDS011;53460;39.612;8.822;2022-10-18T06:41:41;3.13;;;2.15;;
66603;SDS011;53460;39.612;8.822;2022-10-18T06:44:17;4.18;;;2.50;;
66603;SDS011;53460;39.612;8.822;2022-10-18T06:46:44;3.08;;;2.33;;
66603;SDS011;53460;39.612;8.822;2022-10-18T06:49:10;2.05;;;1.83;;
66603;SDS011;53460;39.612;8.822;2022-10-18T06:51:36;5.13;;;2.50;;
66603;SDS011;53460;39.612;8.822;2022-10-18T06:54:02;8.10;;;2.92;;
66603;SDS011;53460;39.612;8.822;2022-10-18T06:56:27;4.28;;;2.70;;
66603;SDS011;53460;39.612;8.822;2022-10-18T06:58:53;3.42;;;3.03;;
66603;SDS011;53460;39.612;8.822;2022-10-18T07:01:19;2.67;;;2.47;;
66603;SDS011;53460;39.612;8.822;2022-10-18T07:03:45;4.97;;;3.90;;
66603;SDS011;53460;39.612;8.822;2022-10-18T07:06:11;5.38;;;4.43;;
66603;SDS011;53460;39.612;8.822;2022-10-18T07:08:37;6.60;;;3.53;;
66603;SDS011;53460;39.612;8.822;2022-10-18T07:11:03;12.73;;;3.67;;
66603;SDS011;53460;39.612;8.822;2022-10-18T07:13:29;3.17;;;2.65;;
66603;SDS011;53460;39.612;8.822;2022-10-18T07:16:01;4.03;;;3.50;;
66603;SDS011;53460;39.612;8.822;2022-10-18T07:18:27;4.55;;;2.50;;
66603;SDS011;53460;39.612;8.822;2022-10-18T07:20:53;4.65;;;2.78;;
66603;SDS011;53460;39.612;8.822;2022-10-18T07:23:18;4.40;;;3.13;;
66603;SDS011;53460;39.612;8.822;2022-10-18T07:25:45;5.40;;;2.90;;
66603;SDS011;53460;39.612;8.822;2022-10-18T07:28:11;5.10;;;2.53;;
66603;SDS011;53460;39.612;8.822;2022-10-18T07:30:36;4.00;;;2.60;;
66603;SDS011;53460;39.612;8.822;2022-10-18T07:33:02;2.83;;;2.55;;
66603;SDS011;53460;39.612;8.822;2022-10-18T07:35:27;3.92;;;2.40;;
66603;SDS011;53460;39.612;8.822;2022-10-18T07:37:53;5.30;;;2.80;;
66603;SDS011;53460;39.612;8.822;2022-10-18T07:40:18;4.13;;;2.92;;
66603;SDS011;53460;39.612;8.822;2022-10-18T07:42:44;3.13;;;2.25;;
66603;SDS011;53460;39.612;8.822;2022-10-18T07:45:09;2.28;;;2.13;;
66603;SDS011;53460;39.612;8.822;2022-10-18T07:47:36;4.13;;;2.25;;
66603;SDS011;53460;39.612;8.822;2022-10-18T07:50:02;3.15;;;1.80;;
66603;SDS011;53460;39.612;8.822;2022-10-18T07:52:27;2.83;;;2.00;;
66603;SDS011;53460;39.612;8.822;2022-10-18T07:54:53;3.60;;;2.50;;
66603;SDS011;53460;39.612;8.822;2022-10-18T07:57:18;3.33;;;1.60;;
66603;SDS011;53460;39.612;8.822;2022-10-18T07:59:44;2.58;;;2.00;;
66603;SDS011;53460;39.612;8.822;2022-10-18T08:02:12;2.63;;;1.92;;
66603;SDS011;53460;39.612;8.822;2022-10-18T08:04:37;4.10;;;2.25;;
66603;SDS011;53460;39.612;8.822;2022-10-18T08:07:03;2.30;;;2.00;;
66603;SDS011;53460;39.612;8.822;2022-10-18T08:09:28;2.70;;;2.05;;
66603;SDS011;53460;39.612;8.822;2022-10-18T08:11:54;2.97;;;1.88;;
66603;SDS011;53460;39.612;8.822;2022-10-18T08:14:19;3.25;;;1.67;;
66603;SDS011;53460;39.612;8.822;2022-10-18T08:16:44;3.85;;;1.65;;
66603;SDS011;53460;39.612;8.822;2022-10-18T08:19:10;5.20;;;2.03;;
66603;SDS011;53460;39.612;8.822;2022-10-18T08:21:35;2.10;;;1.73;;
66603;SDS011;53460;39.612;8.822;2022-10-18T08:24:01;2.28;;;1.77;;
66603;SDS011;53460;39.612;8.822;2022-10-18T08:26:26;4.03;;;2.00;;
66603;SDS011;53460;39.612;8.822;2022-10-18T08:28:52;2.30;;;2.10;;
66603;SDS011;53460;39.612;8.822;2022-10-18T08:31:17;4.05;;;1.88;;
66603;SDS011;53460;39.612;8.822;2022-10-18T08:33:43;2.05;;;1.83;;
66603;SDS011;53460;39.612;8.822;2022-10-18T08:36:10;3.17;;;1.85;;
66603;SDS011;53460;39.612;8.822;2022-10-18T08:38:36;3.60;;;1.80;;
66603;SDS011;53460;39.612;8.822;2022-10-18T08:41:15;3.00;;;1.85;;
66603;SDS011;53460;39.612;8.822;2022-10-18T08:43:43;3.33;;;1.80;;
66603;SDS011;53460;39.612;8.822;2022-10-18T08:46:10;3.00;;;2.20;;
66603;SDS011;53460;39.612;8.822;2022-10-18T08:48:44;3.33;;;2.13;;
66603;SDS011;53460;39.612;8.822;2022-10-18T08:51:29;3.35;;;1.90;;
66603;SDS011;53460;39.612;8.822;2022-10-18T08:54:07;3.60;;;2.00;;
66603;SDS011;53460;39.612;8.822;2022-10-18T08:56:35;2.22;;;1.80;;
66603;SDS011;53460;39.612;8.822;2022-10-18T08:59:01;2.40;;;1.80;;
66603;SDS011;53460;39.612;8.822;2022-10-18T09:04:34;4.43;;;2.17;;
66603;SDS011;53460;39.612;8.822;2022-10-18T09:09:32;4.63;;;2.00;;
66603;SDS011;53460;39.612;8.822;2022-10-18T09:14:36;2.35;;;1.67;;
66603;SDS011;53460;39.612;8.822;2022-10-18T09:17:19;3.75;;;2.58;;
66603;SDS011;53460;39.612;8.822;2022-10-18T09:20:01;2.78;;;1.92;;
66603;SDS011;53460;39.612;8.822;2022-10-18T09:27:18;2.05;;;1.90;;
66603;SDS011;53460;39.612;8.822;2022-10-18T09:32:24;4.80;;;2.30;;
66603;SDS011;53460;39.612;8.822;2022-10-18T09:34:59;3.22;;;2.10;;
66603;SDS011;53460;39.612;8.822;2022-10-18T09:37:27;3.97;;;1.73;;
66603;SDS011;53460;39.612;8.822;2022-10-18T09:39:58;7.53;;;2.13;;
66603;SDS011;53460;39.612;8.822;2022-10-18T09:42:26;3.40;;;2.00;;
66603;SDS011;53460;39.612;8.822;2022-10-18T09:45:17;3.90;;;2.53;;
66603;SDS011;53460;39.612;8.822;2022-10-18T09:47:45;5.85;;;1.95;;
66603;SDS011;53460;39.612;8.822;2022-10-18T09:55:29;2.40;;;1.80;;
66603;SDS011;53460;39.612;8.822;2022-10-18T09:57:57;2.42;;;2.10;;
66603;SDS011;53460;39.612;8.822;2022-10-18T10:03:11;2.92;;;1.90;;
66603;SDS011;53460;39.612;8.822;2022-10-18T10:05:40;3.67;;;1.65;;
66603;SDS011;53460;39.612;8.822;2022-10-18T10:08:06;2.13;;;1.80;;
66603;SDS011;53460;39.612;8.822;2022-10-18T10:10:31;6.63;;;2.00;;
66603;SDS011;53460;39.612;8.822;2022-10-18T10:15:53;3.05;;;2.03;;
66603;SDS011;53460;39.612;8.822;2022-10-18T10:18:28;3.58;;;1.92;;
66603;SDS011;53460;39.612;8.822;2022-10-18T10:21:12;3.20;;;1.83;;
66603;SDS011;53460;39.612;8.822;2022-10-18T10:23:43;2.05;;;1.73;;
66603;SDS011;53460;39.612;8.822;2022-10-18T10:26:29;2.33;;;2.00;;
66603;SDS011;53460;39.612;8.822;2022-10-18T10:28:56;2.42;;;2.00;;
66603;SDS011;53460;39.612;8.822;2022-10-18T10:31:26;5.03;;;2.22;;
66603;SDS011;53460;39.612;8.822;2022-10-18T10:36:23;2.65;;;2.00;;
66603;SDS011;53460;39.612;8.822;2022-10-18T10:39:31;6.30;;;5.00;;
66603;SDS011;53460;39.612;8.822;2022-10-18T10:41:38;5.32;;;4.82;;
66603;SDS011;53460;39.612;8.822;2022-10-18T10:44:12;4.00;;;3.38;;
66603;SDS011;53460;39.612;8.822;2022-10-18T10:46:38;3.83;;;3.30;;
66603;SDS011;53460;39.612;8.822;2022-10-18T10:49:03;3.28;;;2.40;;
66603;SDS011;53460;39.612;8.822;2022-10-18T10:51:33;2.50;;;2.30;;
66603;SDS011;53460;39.612;8.822;2022-10-18T10:54:11;5.00;;;2.28;;
66603;SDS011;53460;39.612;8.822;2022-10-18T10:59:17;5.07;;;2.58;;
66603;SDS011;53460;39.612;8.822;2022-10-18T11:01:44;2.70;;;2.42;;
66603;SDS011;53460;39.612;8.822;2022-10-18T11:04:26;4.55;;;2.40;;
66603;SDS011;53460;39.612;8.822;2022-10-18T11:12:25;2.58;;;2.25;;
66603;SDS011;53460;39.612;8.822;2022-10-18T11:14:54;2.92;;;2.35;;
66603;SDS011;53460;39.612;8.822;2022-10-18T11:20:01;3.38;;;2.45;;
66603;SDS011;53460;39.612;8.822;2022-10-18T11:22:30;2.45;;;1.85;;
66603;SDS011;53460;39.612;8.822;2022-10-18T11:24:56;2.95;;;2.22;;
66603;SDS011;53460;39.612;8.822;2022-10-18T11:27:28;4.68;;;2.10;;
66603;SDS011;53460;39.612;8.822;2022-10-18T11:32:43;4.28;;;2.05;;
66603;SDS011;53460;39.612;8.822;2022-10-18T11:35:21;2.97;;;1.92;;
66603;SDS011;53460;39.612;8.822;2022-10-18T11:37:55;2.72;;;2.15;;
66603;SDS011;53460;39.612;8.822;2022-10-18T11:50:20;2.88;;;2.08;;
66603;SDS011;53460;39.612;8.822;2022-10-18T12:03:10;2.80;;;1.85;;
66603;SDS011;53460;39.612;8.822;2022-10-18T12:05:37;3.53;;;2.00;;
66603;SDS011;53460;39.612;8.822;2022-10-18T12:10:48;3.40;;;2.00;;
66603;SDS011;53460;39.612;8.822;2022-10-18T12:13:34;4.63;;;1.70;;
66603;SDS011;53460;39.612;8.822;2022-10-18T12:16:01;3.38;;;1.65;;
66603;SDS011;53460;39.612;8.822;2022-10-18T12:18:27;3.47;;;1.83;;
66603;SDS011;53460;39.612;8.822;2022-10-18T12:20:55;3.20;;;1.50;;
66603;SDS011;53460;39.612;8.822;2022-10-18T12:26:21;2.20;;;1.63;;
66603;SDS011;53460;39.612;8.822;2022-10-18T12:33:45;3.20;;;1.70;;
66603;SDS011;53460;39.612;8.822;2022-10-18T12:41:23;2.80;;;1.63;;
66603;SDS011;53460;39.612;8.822;2022-10-18T12:43:53;3.83;;;1.67;;
66603;SDS011;53460;39.612;8.822;2022-10-18T12:46:20;3.53;;;1.30;;
66603;SDS011;53460;39.612;8.822;2022-10-18T12:48:49;5.97;;;1.50;;
66603;SDS011;53460;39.612;8.822;2022-10-18T12:51:24;3.10;;;1.48;;
66603;SDS011;53460;39.612;8.822;2022-10-18T13:09:26;2.28;;;1.50;;
66603;SDS011;53460;39.612;8.822;2022-10-18T13:19:53;2.75;;;2.05;;
66603;SDS011;53460;39.612;8.822;2022-10-18T13:24:55;2.33;;;1.90;;
66603;SDS011;53460;39.612;8.822;2022-10-18T13:27:37;5.43;;;2.95;;
66603;SDS011;53460;39.612;8.822;2022-10-18T13:32:44;3.60;;;2.80;;
66603;SDS011;53460;39.612;8.822;2022-10-18T13:37:58;4.90;;;3.42;;
66603;SDS011;53460;39.612;8.822;2022-10-18T13:40:24;4.90;;;3.00;;
66603;SDS011;53460;39.612;8.822;2022-10-18T13:42:49;5.20;;;3.83;;
66603;SDS011;53460;39.612;8.822;2022-10-18T13:47:56;8.23;;;4.05;;
66603;SDS011;53460;39.612;8.822;2022-10-18T13:50:34;6.07;;;2.92;;
66603;SDS011;53460;39.612;8.822;2022-10-18T13:53:43;5.55;;;3.00;;
66603;SDS011;53460;39.612;8.822;2022-10-18T13:58:36;4.22;;;2.10;;
66603;SDS011;53460;39.612;8.822;2022-10-18T14:03:34;2.17;;;1.48;;
66603;SDS011;53460;39.612;8.822;2022-10-18T14:06:09;4.03;;;1.83;;
66603;SDS011;53460;39.612;8.822;2022-10-18T14:11:06;1.75;;;1.63;;
66603;SDS011;53460;39.612;8.822;2022-10-18T14:13:37;3.40;;;2.00;;
66603;SDS011;53460;39.612;8.822;2022-10-18T14:16:12;6.25;;;2.78;;
66603;SDS011;53460;39.612;8.822;2022-10-18T14:18:44;4.80;;;2.58;;
66603;SDS011;53460;39.612;8.822;2022-10-18T14:21:13;2.63;;;1.77;;
66603;SDS011;53460;39.612;8.822;2022-10-18T14:23:43;4.05;;;2.63;;
66603;SDS011;53460;39.612;8.822;2022-10-18T14:26:16;12.50;;;6.80;;
66603;SDS011;53460;39.612;8.822;2022-10-18T14:28:42;7.78;;;4.78;;
66603;SDS011;53460;39.612;8.822;2022-10-18T14:31:14;6.20;;;1.92;;
66603;SDS011;53460;39.612;8.822;2022-10-18T14:36:15;4.13;;;2.42;;
66603;SDS011;53460;39.612;8.822;2022-10-18T14:41:30;6.43;;;2.47;;
66603;SDS011;53460;39.612;8.822;2022-10-18T14:49:24;10.32;;;2.60;;
66603;SDS011;53460;39.612;8.822;2022-10-18T14:51:50;10.88;;;3.33;;
66603;SDS011;53460;39.612;8.822;2022-10-18T14:54:22;4.25;;;2.15;;
66603;SDS011;53460;39.612;8.822;2022-10-18T14:56:48;5.30;;;2.57;;
66603;SDS011;53460;39.612;8.822;2022-10-18T14:59:23;3.55;;;2.28;;
66603;SDS011;53460;39.612;8.822;2022-10-18T15:01:54;5.43;;;2.50;;
66603;SDS011;53460;39.612;8.822;2022-10-18T15:04:19;4.80;;;2.60;;
66603;SDS011;53460;39.612;8.822;2022-10-18T15:06:45;3.55;;;2.40;;
66603;SDS011;53460;39.612;8.822;2022-10-18T15:09:12;3.25;;;2.25;;
66603;SDS011;53460;39.612;8.822;2022-10-18T15:11:40;4.05;;;2.60;;
66603;SDS011;53460;39.612;8.822;2022-10-18T15:14:06;3.67;;;2.60;;
66603;SDS011;53460;39.612;8.822;2022-10-18T15:16:37;2.77;;;2.33;;
66603;SDS011;53460;39.612;8.822;2022-10-18T15:21:33;5.70;;;2.42;;
66603;SDS011;53460;39.612;8.822;2022-10-18T15:24:18;4.93;;;2.90;;
66603;SDS011;53460;39.612;8.822;2022-10-18T15:26:44;3.00;;;2.50;;
66603;SDS011;53460;39.612;8.822;2022-10-18T15:29:17;3.05;;;2.75;;
66603;SDS011;53460;39.612;8.822;2022-10-18T15:31:44;3.40;;;2.60;;
66603;SDS011;53460;39.612;8.822;2022-10-18T15:34:14;4.80;;;2.72;;
66603;SDS011;53460;39.612;8.822;2022-10-18T15:36:40;4.82;;;2.70;;
66603;SDS011;53460;39.612;8.822;2022-10-18T15:39:16;6.82;;;2.83;;
66603;SDS011;53460;39.612;8.822;2022-10-18T15:41:46;4.22;;;2.90;;
66603;SDS011;53460;39.612;8.822;2022-10-18T15:47:18;5.68;;;3.00;;
66603;SDS011;53460;39.612;8.822;2022-10-18T15:54:56;2.97;;;2.55;;
66603;SDS011;53460;39.612;8.822;2022-10-18T15:57:22;3.42;;;2.70;;
66603;SDS011;53460;39.612;8.822;2022-10-18T15:59:50;6.72;;;3.05;;
66603;SDS011;53460;39.612;8.822;2022-10-18T16:02:16;5.47;;;2.80;;
66603;SDS011;53460;39.612;8.822;2022-10-18T16:04:42;5.20;;;3.00;;
66603;SDS011;53460;39.612;8.822;2022-10-18T16:07:08;3.25;;;2.40;;
66603;SDS011;53460;39.612;8.822;2022-10-18T16:09:34;6.75;;;3.15;;
66603;SDS011;53460;39.612;8.822;2022-10-18T16:12:00;5.80;;;2.97;;
66603;SDS011;53460;39.612;8.822;2022-10-18T16:14:25;4.28;;;2.63;;
66603;SDS011;53460;39.612;8.822;2022-10-18T16:16:55;3.75;;;2.55;;
66603;SDS011;53460;39.612;8.822;2022-10-18T16:19:22;2.88;;;2.55;;
66603;SDS011;53460;39.612;8.822;2022-10-18T16:21:48;4.05;;;2.42;;
66603;SDS011;53460;39.612;8.822;2022-10-18T16:24:14;5.65;;;2.63;;
66603;SDS011;53460;39.612;8.822;2022-10-18T16:26:39;6.22;;;2.60;;
66603;SDS011;53460;39.612;8.822;2022-10-18T16:29:05;5.35;;;2.42;;
66603;SDS011;53460;39.612;8.822;2022-10-18T16:31:33;3.45;;;2.75;;
66603;SDS011;53460;39.612;8.822;2022-10-18T16:33:58;7.63;;;2.25;;
66603;SDS011;53460;39.612;8.822;2022-10-18T16:36:27;12.05;;;2.50;;
66603;SDS011;53460;39.612;8.822;2022-10-18T16:38:53;3.50;;;2.50;;
66603;SDS011;53460;39.612;8.822;2022-10-18T16:41:19;5.13;;;2.47;;
66603;SDS011;53460;39.612;8.822;2022-10-18T16:43:45;4.63;;;2.78;;
66603;SDS011;53460;39.612;8.822;2022-10-18T16:46:30;4.25;;;2.50;;
66603;SDS011;53460;39.612;8.822;2022-10-18T16:48:57;3.00;;;2.70;;
66603;SDS011;53460;39.612;8.822;2022-10-18T16:51:22;7.93;;;2.80;;
66603;SDS011;53460;39.612;8.822;2022-10-18T16:53:48;4.20;;;2.75;;
66603;SDS011;53460;39.612;8.822;2022-10-18T16:56:17;3.80;;;3.17;;
66603;SDS011;53460;39.612;8.822;2022-10-18T16:58:44;4.70;;;3.42;;
66603;SDS011;53460;39.612;8.822;2022-10-18T17:01:10;5.28;;;3.33;;
66603;SDS011;53460;39.612;8.822;2022-10-18T17:03:36;4.28;;;2.97;;
66603;SDS011;53460;39.612;8.822;2022-10-18T17:06:02;5.03;;;3.00;;
66603;SDS011;53460;39.612;8.822;2022-10-18T17:08:27;4.68;;;3.33;;
66603;SDS011;53460;39.612;8.822;2022-10-18T17:10:54;6.25;;;3.30;;
66603;SDS011;53460;39.612;8.822;2022-10-18T17:13:19;6.72;;;2.92;;
66603;SDS011;53460;39.612;8.822;2022-10-18T17:15:45;3.15;;;2.85;;
66603;SDS011;53460;39.612;8.822;2022-10-18T17:18:12;5.20;;;3.20;;
66603;SDS011;53460;39.612;8.822;2022-10-18T17:20:39;6.10;;;3.47;;
66603;SDS011;53460;39.612;8.822;2022-10-18T17:23:05;3.83;;;3.10;;
66603;SDS011;53460;39.612;8.822;2022-10-18T17:25:30;7.28;;;3.22;;
66603;SDS011;53460;39.612;8.822;2022-10-18T17:27:56;5.05;;;3.17;;
66603;SDS011;53460;39.612;8.822;2022-10-18T17:30:21;4.70;;;2.95;;
66603;SDS011;53460;39.612;8.822;2022-10-18T17:32:47;6.65;;;3.17;;
66603;SDS011;53460;39.612;8.822;2022-10-18T17:35:12;6.25;;;3.10;;